Time;durP1;ratioP1;P1;durP2;ratioP2;P2;SDS_P1;SDS_P2;PMS_P1;PMS_P2;Temp;Humidity;BMP_temperature;BMP_pressure;BME280_temperature;BME280_humidity;BME280_pressure;Samples;Min_cycle;Max_cycle;Signal;HPM_P1;HPM_P2
2023/07/31 00:01:01;;;;;;;2.97;1.60;;;;;;;;;;5035896;28;20428;-88
2023/07/31 00:03:27;;;;;;;13.83;2.80;;;;;;;;;;5037167;28;20423;-88
2023/07/31 00:05:53;;;;;;;3.83;1.87;;;;;;;;;;5037981;28;20543;-88
2023/07/31 00:08:22;;;;;;;3.30;2.00;;;16.30;99.90;;;;;;5039619;28;20441;-89
2023/07/31 00:10:48;;;;;;;5.47;2.37;;;;;;;;;;5056737;28;20402;-88
2023/07/31 00:13:14;;;;;;;4.13;2.10;;;;;;;;;;5038508;28;20431;-88
2023/07/31 00:15:40;;;;;;;5.90;2.23;;;;;;;;;;5032211;28;20444;-89
2023/07/31 00:18:05;;;;;;;7.37;2.60;;;16.20;99.90;;;;;;5023226;28;20498;-88
2023/07/31 00:20:33;;;;;;;4.60;1.90;;;;;;;;;;5043663;28;20392;-86
2023/07/31 00:23:22;;;;;;;3.50;1.20;;;16.20;99.90;;;;;;5039628;28;20181;-89
2023/07/31 00:25:49;;;;;;;4.97;3.10;;;;;;;;;;5029107;28;20454;-88
2023/07/31 00:28:27;;;;;;;5.03;2.30;;;16.10;99.90;;;;;;5038373;28;20884;-88
2023/07/31 00:30:53;;;;;;;4.70;2.00;;;;;;;;;;5038093;28;20519;-89
2023/07/31 00:33:22;;;;;;;9.90;2.10;;;;;;;;;;5037506;28;20417;-88
2023/07/31 00:35:52;;;;;;;5.20;2.00;;;16.10;99.90;;;;;;5031262;28;21025;-88
2023/07/31 00:38:21;;;;;;;3.80;2.20;;;16.00;99.90;;;;;;5055644;28;20451;-89
2023/07/31 00:40:47;;;;;;;6.27;1.93;;;;;;;;;;5045977;28;20510;-88
2023/07/31 00:43:13;;;;;;;4.73;1.63;;;;;;;;;;5045625;28;20417;-88
2023/07/31 00:45:39;;;;;;;5.47;1.83;;;;;;;;;;5044784;28;20436;-89
2023/07/31 00:48:07;;;;;;;4.90;1.80;;;16.30;99.90;;;;;;5042511;28;20427;-89
2023/07/31 00:50:36;;;;;;;2.57;1.60;;;16.30;99.90;;;;;;5040115;28;20769;-88
2023/07/31 00:53:04;;;;;;;5.67;2.07;;;18.10;99.90;;;;;;5025440;28;20417;-90
2023/07/31 00:55:31;;;;;;;8.43;2.00;;;;;;;;;;5024511;28;20507;-90
2023/07/31 00:57:58;;;;;;;12.10;1.60;;;16.30;99.90;;;;;;5025937;28;20775;-90
2023/07/31 01:00:25;;;;;;;10.33;1.33;;;18.70;99.90;;;;;;5028742;28;20685;-89
2023/07/31 01:02:52;;;;;;;4.93;1.73;;;16.30;99.90;;;;;;5044756;28;20407;-90
2023/07/31 01:05:29;;;;;;;5.43;1.90;;;16.30;99.90;;;;;;5032508;28;20453;-91
2023/07/31 01:08:21;;;;;;;5.93;1.97;;;16.30;99.90;;;;;;5046746;28;20493;-90
2023/07/31 01:10:55;;;;;;;6.33;2.20;;;16.40;99.90;;;;;;5055430;28;20416;-91
2023/07/31 01:13:21;;;;;;;2.40;1.70;;;16.40;99.90;;;;;;5042596;28;20400;-90
2023/07/31 01:15:49;;;;;;;3.30;1.37;;;20.00;99.90;;;;;;5058340;28;20871;-89
2023/07/31 01:18:15;;;;;;;3.47;1.80;;;;;;;;;;5058615;28;20516;-89
2023/07/31 01:20:43;;;;;;;8.30;2.10;;;16.60;99.90;;;;;;5042222;28;20416;-88
2023/07/31 01:23:53;;;;;;;5.87;2.37;;;16.50;99.90;;;;;;5041913;28;20412;-89
2023/07/31 01:26:22;;;;;;;1.87;1.27;;;16.40;99.90;;;;;;4964578;28;20454;-91
2023/07/31 01:29:08;;;;;;;2.67;1.63;;;16.30;99.90;;;;;;5045883;28;20438;-93
2023/07/31 01:31:36;;;;;;;4.40;1.50;;;16.50;99.90;;;;;;5045340;28;20400;-91
2023/07/31 01:34:02;;;;;;;4.33;2.43;;;;;;;;;;5039986;28;20419;-91
2023/07/31 01:36:31;;;;;;;3.20;1.70;;;16.50;99.90;;;;;;5030892;28;20447;-89
2023/07/31 01:39:01;;;;;;;5.30;2.17;;;16.50;99.90;;;;;;5045765;28;20471;-88
2023/07/31 01:41:27;;;;;;;4.43;2.07;;;19.30;99.90;;;;;;5031772;28;20432;-87
2023/07/31 01:43:52;;;;;;;8.17;2.40;;;16.40;99.90;;;;;;5030792;28;20435;-88
2023/07/31 01:46:18;;;;;;;2.67;1.43;;;17.00;99.90;;;;;;5048343;28;20462;-88
2023/07/31 01:48:44;;;;;;;5.87;2.07;;;;;;;;;;5048455;28;20185;-89
2023/07/31 01:51:10;;;;;;;5.83;2.07;;;;;;;;;;5027760;28;20180;-89
2023/07/31 01:53:36;;;;;;;6.33;1.20;;;16.30;99.90;;;;;;5048677;28;20503;-89
2023/07/31 01:56:02;;;;;;;8.00;1.97;;;;;;;;;;5046436;28;20478;-90
2023/07/31 01:58:28;;;;;;;4.60;2.60;;;;;;;;;;5032001;28;20459;-89
2023/07/31 02:00:54;;;;;;;6.13;2.57;;;16.30;99.90;;;;;;5033271;28;20581;-89
2023/07/31 02:03:19;;;;;;;6.10;2.03;;;15.90;99.90;;;;;;5049017;28;20483;-89
2023/07/31 02:05:49;;;;;;;5.60;2.33;;;16.20;99.90;;;;;;5040865;28;20205;-90
2023/07/31 02:08:16;;;;;;;7.90;2.27;;;16.40;99.90;;;;;;5043569;28;20177;-89
2023/07/31 02:10:42;;;;;;;8.13;2.20;;;16.30;99.90;;;;;;5060840;28;20966;-88
2023/07/31 02:13:08;;;;;;;4.43;1.97;;;;;;;;;;5040797;28;20432;-89
2023/07/31 02:15:35;;;;;;;4.03;2.10;;;16.30;99.90;;;;;;5034611;28;20472;-89
2023/07/31 02:18:00;;;;;;;6.80;2.03;;;16.30;99.90;;;;;;5048149;28;20451;-89
2023/07/31 02:20:26;;;;;;;2.93;1.90;;;;;;;;;;5053716;28;20569;-90
2023/07/31 02:22:52;;;;;;;9.80;2.27;;;;;;;;;;5047547;28;20184;-89
2023/07/31 02:25:18;;;;;;;6.03;2.47;;;;;;;;;;5036446;28;20789;-90
2023/07/31 02:27:44;;;;;;;7.17;2.33;;;16.30;99.90;;;;;;5040061;28;20471;-89
2023/07/31 02:30:10;;;;;;;4.37;1.97;;;16.40;99.90;;;;;;5046364;28;20864;-89
2023/07/31 02:32:35;;;;;;;3.87;2.10;;;16.50;99.90;;;;;;5048265;28;20192;-89
2023/07/31 02:35:01;;;;;;;3.70;1.93;;;16.50;99.90;;;;;;5028372;28;20455;-89
2023/07/31 02:37:29;;;;;;;9.60;2.00;;;18.10;99.90;;;;;;5039423;28;20177;-90
2023/07/31 02:39:55;;;;;;;2.97;1.97;;;16.50;99.90;;;;;;5066153;28;20267;-89
2023/07/31 02:42:20;;;;;;;4.57;1.83;;;16.50;99.90;;;;;;5038273;28;20502;-89
2023/07/31 02:44:46;;;;;;;6.03;2.00;;;;;;;;;;5040300;28;20477;-89
2023/07/31 02:47:12;;;;;;;2.23;1.50;;;16.50;99.90;;;;;;5040388;28;20323;-91
2023/07/31 02:49:38;;;;;;;8.50;1.67;;;17.10;99.90;;;;;;5042505;28;20435;-89
2023/07/31 02:52:04;;;;;;;2.77;2.10;;;17.10;99.90;;;;;;5037142;28;20232;-89
2023/07/31 02:54:29;;;;;;;3.10;1.90;;;16.40;99.90;;;;;;5040297;28;20185;-89
2023/07/31 02:56:55;;;;;;;5.60;1.77;;;16.50;99.90;;;;;;5024395;28;20435;-88
2023/07/31 02:59:20;;;;;;;5.07;1.77;;;16.40;99.90;;;;;;5033990;28;20724;-88
2023/07/31 03:01:46;;;;;;;6.57;2.00;;;16.40;99.90;;;;;;5041697;28;20234;-89
2023/07/31 03:04:11;;;;;;;4.00;1.80;;;16.50;99.90;;;;;;5045398;28;20664;-89
2023/07/31 03:06:37;;;;;;;3.60;2.20;;;18.10;99.90;;;;;;5055865;28;20197;-88
2023/07/31 03:09:03;;;;;;;4.63;2.20;;;16.40;99.90;;;;;;5039947;28;20185;-89
2023/07/31 03:11:28;;;;;;;2.27;1.90;;;16.40;99.90;;;;;;5043516;28;20177;-88
2023/07/31 03:13:54;;;;;;;5.03;2.20;;;16.30;99.90;;;;;;5035658;28;20216;-88
2023/07/31 03:16:19;;;;;;;7.20;2.60;;;16.30;99.90;;;;;;5049130;28;20202;-88
2023/07/31 03:18:45;;;;;;;6.40;1.93;;;17.10;99.90;;;;;;5036429;28;20240;-88
2023/07/31 03:21:11;;;;;;;2.80;1.80;;;;;;;;;;5054177;28;20655;-90
2023/07/31 03:23:36;;;;;;;4.00;2.40;;;16.30;99.90;;;;;;5041334;28;20177;-89
2023/07/31 03:26:07;;;;;;;6.73;2.33;;;16.30;99.90;;;;;;5067298;28;20493;-88
2023/07/31 03:28:33;;;;;;;2.10;1.80;;;16.30;99.90;;;;;;5049895;28;20173;-88
2023/07/31 03:30:59;;;;;;;4.63;1.80;;;16.30;99.90;;;;;;5065333;28;20751;-88
2023/07/31 03:33:25;;;;;;;5.70;2.37;;;16.40;99.90;;;;;;5057228;28;20437;-89
2023/07/31 03:35:51;;;;;;;3.57;1.97;;;16.30;99.90;;;;;;5047242;28;20509;-88
2023/07/31 03:38:16;;;;;;;3.93;2.33;;;16.30;99.90;;;;;;5043366;28;20661;-89
2023/07/31 03:40:42;;;;;;;3.17;1.87;;;16.30;99.90;;;;;;5061335;28;20496;-87
2023/07/31 03:43:08;;;;;;;3.70;2.33;;;16.40;99.90;;;;;;5065767;28;20206;-89
2023/07/31 03:45:33;;;;;;;4.53;2.17;;;16.40;99.90;;;;;;5035892;28;20193;-89
2023/07/31 03:48:00;;;;;;;4.13;1.80;;;;;;;;;;5035083;28;20215;-89
2023/07/31 03:50:25;;;;;;;5.43;1.87;;;16.60;99.90;;;;;;5037339;28;21125;-90
2023/07/31 03:52:51;;;;;;;3.70;2.00;;;;;;;;;;5032224;28;20439;-89
2023/07/31 03:55:18;;;;;;;5.63;1.90;;;;;;;;;;5036484;28;20203;-91
2023/07/31 03:57:44;;;;;;;5.03;1.90;;;;;;;;;;5034708;28;20424;-90
2023/07/31 04:00:18;;;;;;;3.70;1.83;;;16.40;99.90;;;;;;5038468;28;20458;-90
2023/07/31 04:02:45;;;;;;;3.27;2.07;;;16.30;99.90;;;;;;5050612;28;20408;-88
2023/07/31 04:05:11;;;;;;;5.80;2.00;;;16.30;99.90;;;;;;5037257;28;20505;-89
2023/07/31 04:07:36;;;;;;;8.70;2.70;;;16.30;99.90;;;;;;5035406;28;20443;-88
2023/07/31 04:10:03;;;;;;;4.73;1.70;;;16.30;99.90;;;;;;5034771;28;20228;-85
2023/07/31 04:12:29;;;;;;;4.43;1.70;;;16.40;99.90;;;;;;5035997;28;20186;-86
2023/07/31 04:14:55;;;;;;;3.60;2.00;;;;;;;;;;5049809;28;20555;-86
2023/07/31 04:17:20;;;;;;;9.53;2.20;;;16.40;99.90;;;;;;5050379;28;20181;-86
2023/07/31 04:19:46;;;;;;;5.50;2.07;;;16.50;99.90;;;;;;5049206;28;20467;-87
2023/07/31 04:22:11;;;;;;;4.87;2.03;;;16.60;99.90;;;;;;5032022;28;20192;-86
2023/07/31 04:24:37;;;;;;;6.73;1.73;;;16.70;99.90;;;;;;5048951;28;20526;-88
2023/07/31 04:27:03;;;;;;;4.23;1.83;;;17.00;99.90;;;;;;5051739;28;20222;-88
2023/07/31 04:29:28;;;;;;;11.80;2.10;;;17.10;99.90;;;;;;5034253;28;20181;-88
2023/07/31 04:31:54;;;;;;;4.20;2.37;;;;;;;;;;5034253;28;20185;-87
2023/07/31 04:34:20;;;;;;;9.87;2.03;;;17.20;99.90;;;;;;5027708;28;20182;-85
2023/07/31 04:36:45;;;;;;;5.03;2.00;;;17.30;99.90;;;;;;5029869;28;20460;-85
2023/07/31 04:39:11;;;;;;;5.00;2.17;;;17.40;99.90;;;;;;5029306;28;20207;-85
2023/07/31 04:41:36;;;;;;;4.20;2.00;;;17.70;99.90;;;;;;5046792;28;20674;-85
2023/07/31 04:44:03;;;;;;;5.27;2.50;;;18.00;99.90;;;;;;5031517;28;20180;-86
2023/07/31 04:46:29;;;;;;;5.57;2.40;;;18.10;99.90;;;;;;5031053;28;20201;-87
2023/07/31 04:48:55;;;;;;;4.57;2.00;;;18.10;99.90;;;;;;5031349;28;21048;-86
2023/07/31 04:51:21;;;;;;;8.00;2.70;;;18.20;99.90;;;;;;5049319;28;20435;-86
2023/07/31 04:53:46;;;;;;;5.00;1.77;;;18.40;99.90;;;;;;5034300;28;20272;-85
2023/07/31 04:56:12;;;;;;;5.23;2.50;;;18.60;99.90;;;;;;5028399;28;20582;-86
2023/07/31 04:58:37;;;;;;;8.40;2.10;;;18.50;99.90;;;;;;5032301;28;20209;-87
2023/07/31 05:01:03;;;;;;;3.37;2.03;;;18.50;99.90;;;;;;5031067;28;20831;-88
2023/07/31 05:03:28;;;;;;;7.13;3.00;;;18.60;99.90;;;;;;5030267;28;20184;-86
2023/07/31 05:05:54;;;;;;;3.30;1.73;;;18.50;99.90;;;;;;5045512;28;20266;-88
2023/07/31 05:08:19;;;;;;;5.23;2.07;;;18.40;99.90;;;;;;5038332;28;20211;-88
2023/07/31 05:10:45;;;;;;;3.40;2.33;;;18.20;99.90;;;;;;5033336;28;20209;-89
2023/07/31 05:13:10;;;;;;;3.40;2.10;;;18.10;99.90;;;;;;5035903;28;20186;-87
2023/07/31 05:15:36;;;;;;;5.60;2.20;;;18.10;99.90;;;;;;5047305;28;20287;-87
2023/07/31 05:18:01;;;;;;;4.57;2.27;;;18.10;99.90;;;;;;5022176;28;20657;-87
2023/07/31 05:20:27;;;;;;;11.57;1.77;;;18.00;99.90;;;;;;5031206;28;20610;-86
2023/07/31 05:22:53;;;;;;;6.37;2.50;;;18.10;99.90;;;;;;5041556;28;20677;-89
2023/07/31 05:25:18;;;;;;;5.47;2.37;;;18.20;99.90;;;;;;5039457;28;20197;-87
2023/07/31 05:27:44;;;;;;;9.50;5.00;;;18.20;99.90;;;;;;5023477;28;22100;-87
2023/07/31 05:30:09;;;;;;;4.33;1.93;;;18.40;99.90;;;;;;5023544;28;20185;-87
2023/07/31 05:32:35;;;;;;;4.57;1.73;;;18.40;99.90;;;;;;5042948;28;20185;-87
2023/07/31 05:35:01;;;;;;;3.63;2.60;;;18.50;99.90;;;;;;5041841;28;20211;-86
2023/07/31 05:37:27;;;;;;;3.40;2.30;;;18.70;99.90;;;;;;5019911;28;20256;-87
2023/07/31 05:39:52;;;;;;;4.67;2.20;;;18.90;99.90;;;;;;5039493;28;20201;-87
2023/07/31 05:42:18;;;;;;;11.07;2.50;;;19.20;99.90;;;;;;5042224;28;20467;-87
2023/07/31 05:44:43;;;;;;;5.80;2.33;;;19.90;99.90;;;;;;5022217;28;20199;-87
2023/07/31 05:47:09;;;;;;;5.17;2.00;;;20.10;99.90;;;;;;5046568;28;20552;-86
2023/07/31 05:49:35;;;;;;;6.27;2.33;;;19.90;99.90;;;;;;5045384;28;20189;-87
2023/07/31 05:52:01;;;;;;;4.63;2.30;;;20.20;99.90;;;;;;5031346;28;20188;-87
2023/07/31 05:54:27;;;;;;;5.43;2.20;;;21.00;99.90;;;;;;5028112;28;20711;-87
2023/07/31 05:56:52;;;;;;;6.17;2.07;;;21.00;99.90;;;;;;5029135;28;20519;-87
2023/07/31 05:59:18;;;;;;;4.60;2.10;;;21.70;99.90;;;;;;5045926;28;20185;-87
2023/07/31 06:01:43;;;;;;;15.67;2.87;;;22.00;99.90;;;;;;5039701;28;20550;-88
2023/07/31 06:04:09;;;;;;;6.50;1.97;;;22.40;99.90;;;;;;5028412;28;20184;-89
2023/07/31 06:06:34;;;;;;;4.43;2.50;;;23.80;99.90;;;;;;5044704;28;20568;-87
2023/07/31 06:09:00;;;;;;;8.00;2.13;;;23.20;99.90;;;;;;5031464;28;20642;-87
2023/07/31 06:11:27;;;;;;;8.73;2.63;;;24.40;99.90;;;;;;5043730;28;20208;-87
2023/07/31 06:13:52;;;;;;;5.67;2.13;;;26.10;99.90;;;;;;5042461;28;20876;-87
2023/07/31 06:16:18;;;;;;;6.57;2.33;;;28.30;98.40;;;;;;5042175;28;20449;-87
2023/07/31 06:18:44;;;;;;;3.93;2.57;;;;;;;;;;5043881;28;20293;-87
2023/07/31 06:21:10;;;;;;;5.17;2.00;;;27.30;92.30;;;;;;5027536;28;20197;-87
2023/07/31 06:23:36;;;;;;;4.63;1.97;;;25.60;94.20;;;;;;5027592;28;20914;-87
2023/07/31 06:26:01;;;;;;;4.27;2.50;;;24.00;96.40;;;;;;5027446;28;20544;-87
2023/07/31 06:28:31;;;;;;;4.10;2.17;;;22.70;99.60;;;;;;5041288;28;20212;-87
2023/07/31 06:30:58;;;;;;;4.87;2.30;;;22.60;99.90;;;;;;5028685;28;20181;-87
2023/07/31 06:33:24;;;;;;;3.60;2.20;;;22.40;99.90;;;;;;5029524;28;20458;-85
2023/07/31 06:35:50;;;;;;;4.80;2.23;;;21.90;99.90;;;;;;5044189;28;20594;-87
2023/07/31 06:38:18;;;;;;;3.17;2.17;;;21.90;99.90;;;;;;5027962;28;20988;-87
2023/07/31 06:40:44;;;;;;;4.77;3.17;;;21.60;99.90;;;;;;5027201;28;20431;-86
2023/07/31 06:43:09;;;;;;;6.80;2.77;;;21.50;99.90;;;;;;5047232;28;20499;-86
2023/07/31 06:45:36;;;;;;;4.63;1.90;;;21.30;99.90;;;;;;5047731;28;20220;-86
2023/07/31 06:48:08;;;;;;;7.50;2.43;;;21.70;99.90;;;;;;5030387;28;20185;-87
2023/07/31 06:50:34;;;;;;;5.20;2.33;;;22.10;99.90;;;;;;5030073;28;20440;-87
2023/07/31 06:53:00;;;;;;;10.23;2.63;;;22.10;99.90;;;;;;5047564;28;20427;-87
2023/07/31 06:55:26;;;;;;;3.13;2.17;;;22.50;99.90;;;;;;5032539;28;20219;-87
2023/07/31 06:57:54;;;;;;;6.47;2.27;;;22.70;99.90;;;;;;5049101;28;20219;-87
2023/07/31 07:00:21;;;;;;;6.60;2.10;;;23.00;99.90;;;;;;5031522;28;20456;-88
2023/07/31 07:02:47;;;;;;;5.20;1.97;;;22.90;99.90;;;;;;5030129;28;21429;-87
2023/07/31 07:05:13;;;;;;;9.77;2.30;;;22.30;99.90;;;;;;5028894;28;20460;-86
2023/07/31 07:07:39;;;;;;;7.37;2.67;;;22.20;99.90;;;;;;5050498;28;20477;-87
2023/07/31 07:10:05;;;;;;;7.70;2.50;;;22.00;99.90;;;;;;5048372;28;20189;-86
2023/07/31 07:12:32;;;;;;;7.80;2.57;;;21.60;99.90;;;;;;5037826;28;20213;-87
2023/07/31 07:14:57;;;;;;;5.20;2.60;;;21.50;99.90;;;;;;5046970;28;20516;-87
2023/07/31 07:17:24;;;;;;;6.50;1.63;;;21.60;99.90;;;;;;5048735;28;20451;-84
2023/07/31 07:19:49;;;;;;;5.17;2.50;;;21.80;99.90;;;;;;5043662;28;20350;-83
2023/07/31 07:22:15;;;;;;;6.13;2.40;;;21.70;99.90;;;;;;5047920;28;20479;-88
2023/07/31 07:24:42;;;;;;;6.83;1.97;;;22.50;99.90;;;;;;5045800;28;20189;-87
2023/07/31 07:27:07;;;;;;;4.00;2.20;;;22.40;99.90;;;;;;5028409;28;20188;-87
2023/07/31 07:29:38;;;;;;;4.07;2.33;;;22.70;99.90;;;;;;5028851;28;20456;-87
2023/07/31 07:32:04;;;;;;;6.23;2.43;;;22.60;99.90;;;;;;5048191;28;20181;-86
2023/07/31 07:34:30;;;;;;;5.90;2.53;;;23.40;99.90;;;;;;5032385;28;20483;-87
2023/07/31 07:36:56;;;;;;;7.60;2.40;;;23.40;99.90;;;;;;5046509;28;20431;-86
2023/07/31 07:39:22;;;;;;;6.63;2.33;;;24.40;99.90;;;;;;5031505;28;20475;-87
2023/07/31 07:41:47;;;;;;;5.00;2.17;;;24.40;99.90;;;;;;5029833;28;20487;-85
2023/07/31 07:44:14;;;;;;;5.57;2.57;;;24.30;99.90;;;;;;5049079;28;20177;-86
2023/07/31 07:46:39;;;;;;;6.03;2.30;;;25.30;99.90;;;;;;5050183;28;20466;-86
2023/07/31 07:49:05;;;;;;;5.13;3.00;;;26.20;99.90;;;;;;5033707;28;20529;-86
2023/07/31 07:51:31;;;;;;;4.33;2.60;;;27.00;97.30;;;;;;5031723;28;20179;-86
2023/07/31 07:54:00;;;;;;;8.53;2.23;;;27.10;94.50;;;;;;5044802;28;20192;-87
2023/07/31 07:56:26;;;;;;;2.90;2.33;;;27.30;94.80;;;;;;5047905;28;20575;-88
2023/07/31 07:58:53;;;;;;;5.03;2.80;;;25.70;95.10;;;;;;5029232;28;20474;-88
2023/07/31 08:01:18;;;;;;;2.40;2.20;;;25.30;97.60;;;;;;5042279;28;20824;-87
2023/07/31 08:03:44;;;;;;;9.90;2.37;;;25.40;97.30;;;;;;5032725;28;20415;-87
2023/07/31 08:06:10;;;;;;;4.33;1.97;;;24.70;97.40;;;;;;5030345;28;20199;-88
2023/07/31 08:08:37;;;;;;;2.53;1.97;;;24.80;99.70;;;;;;5046698;28;22154;-88
2023/07/31 08:11:03;;;;;;;7.23;2.50;;;25.20;99.90;;;;;;5034954;28;20191;-89
2023/07/31 08:13:29;;;;;;;4.67;2.07;;;;;;;;;;5033338;28;20533;-88
2023/07/31 08:15:57;;;;;;;4.73;2.10;;;26.50;97.20;;;;;;5045464;28;20692;-88
2023/07/31 08:18:23;;;;;;;5.17;2.50;;;;;;;;;;5029380;28;20431;-87
2023/07/31 08:20:49;;;;;;;3.27;2.37;;;;;;;;;;5029900;28;20996;-88
2023/07/31 08:23:15;;;;;;;10.30;2.90;;;;;;;;;;5027969;28;20425;-89
2023/07/31 08:25:41;;;;;;;5.83;2.37;;;28.30;92.00;;;;;;5031522;28;20459;-88
2023/07/31 08:28:07;;;;;;;5.90;2.60;;;28.20;92.00;;;;;;5048058;28;20440;-88
2023/07/31 08:30:33;;;;;;;4.10;2.30;;;;;;;;;;5031313;28;20453;-89
2023/07/31 08:33:00;;;;;;;4.87;2.23;;;29.20;88.00;;;;;;5047175;28;20197;-89
2023/07/31 08:35:28;;;;;;;5.47;2.57;;;26.90;91.10;;;;;;5044604;28;20458;-88
2023/07/31 08:37:54;;;;;;;4.97;2.47;;;26.30;91.70;;;;;;5033168;28;20469;-87
2023/07/31 08:40:21;;;;;;;6.10;3.70;;;25.60;93.40;;;;;;5032452;28;20480;-91
2023/07/31 08:42:48;;;;;;;3.70;2.40;;;25.50;94.40;;;;;;5034771;28;20438;-87
2023/07/31 08:45:18;;;;;;;5.67;2.60;;;25.70;95.10;;;;;;5027709;28;20555;-87
2023/07/31 08:47:56;;;;;;;7.50;2.07;;;25.10;95.50;;;;;;5031252;28;20430;-87
2023/07/31 08:50:21;;;;;;;5.93;2.10;;;24.50;96.40;;;;;;5033822;28;20428;-87
2023/07/31 08:52:49;;;;;;;6.73;2.80;;;24.20;97.90;;;;;;5039144;28;20488;-88
2023/07/31 08:55:15;;;;;;;1.90;1.80;;;24.40;97.90;;;;;;5028714;28;20230;-87
2023/07/31 08:57:42;;;;;;;7.30;1.87;;;24.30;96.50;;;;;;5049361;28;20436;-86
2023/07/31 09:00:09;;;;;;;7.00;2.60;;;24.00;98.50;;;;;;5048231;28;20197;-87
2023/07/31 09:02:45;;;;;;;4.80;1.87;;;23.70;99.10;;;;;;5052797;28;20434;-88
2023/07/31 09:05:11;;;;;;;6.63;2.80;;;24.70;99.50;;;;;;5023322;28;20464;-90
2023/07/31 09:07:37;;;;;;;5.60;2.37;;;24.70;99.80;;;;;;5031105;28;20437;-88
2023/07/31 09:10:04;;;;;;;5.43;2.60;;;24.30;98.00;;;;;;5043674;28;20442;-88
2023/07/31 09:12:30;;;;;;;8.70;2.20;;;24.40;98.10;;;;;;5025477;28;20436;-88
2023/07/31 09:14:57;;;;;;;7.23;3.40;;;24.00;99.20;;;;;;5028665;28;20452;-90
2023/07/31 09:17:33;;;;;;;4.37;2.67;;;23.60;99.90;;;;;;5047200;28;20435;-88
2023/07/31 09:20:19;;;;;;;4.00;2.53;;;24.10;99.90;;;;;;5029734;28;20622;-88
2023/07/31 09:22:45;;;;;;;7.87;3.17;;;24.60;99.90;;;;;;5031551;28;20536;-88
2023/07/31 09:25:25;;;;;;;4.30;2.93;;;24.60;99.20;;;;;;5045789;28;20458;-89
2023/07/31 09:27:59;;;;;;;10.30;3.13;;;23.30;97.50;;;;;;5030487;28;20939;-88
2023/07/31 09:30:25;;;;;;;6.67;2.93;;;23.20;99.60;;;;;;5025596;28;20435;-89
2023/07/31 09:33:00;;;;;;;6.43;3.03;;;22.90;99.50;;;;;;5029328;28;20439;-88
2023/07/31 09:35:30;;;;;;;11.90;3.00;;;22.80;99.90;;;;;;5028863;28;20454;-88
2023/07/31 09:37:59;;;;;;;4.83;3.00;;;22.50;99.80;;;;;;5026939;28;20475;-88
2023/07/31 09:40:39;;;;;;;8.27;3.10;;;22.40;99.90;;;;;;5025461;28;20436;-88
2023/07/31 09:43:07;;;;;;;10.53;3.03;;;22.90;99.90;;;;;;5025167;28;20429;-88
2023/07/31 09:45:38;;;;;;;13.70;2.90;;;23.00;99.90;;;;;;5029574;28;20501;-89
2023/07/31 09:48:10;;;;;;;5.93;2.80;;;23.10;99.90;;;;;;5029740;28;20460;-88
2023/07/31 09:50:38;;;;;;;8.63;2.90;;;23.50;99.90;;;;;;5030287;28;20459;-88
2023/07/31 09:53:05;;;;;;;11.10;3.10;;;23.20;99.90;;;;;;5046115;28;20431;-87
2023/07/31 09:55:31;;;;;;;5.77;2.73;;;23.40;99.90;;;;;;5031489;28;20466;-89
2023/07/31 09:57:57;;;;;;;8.23;3.10;;;23.90;99.90;;;;;;5042358;28;20432;-88
2023/07/31 10:00:25;;;;;;;5.60;2.60;;;24.00;98.90;;;;;;5030759;28;22202;-88
2023/07/31 10:02:51;;;;;;;4.80;2.67;;;24.30;99.30;;;;;;5032905;28;20432;-88
2023/07/31 10:05:20;;;;;;;5.47;2.93;;;24.30;98.60;;;;;;5042526;28;20504;-88
2023/07/31 10:07:54;;;;;;;7.10;2.80;;;24.80;98.00;;;;;;5031121;28;20439;-88
2023/07/31 10:10:22;;;;;;;5.37;2.43;;;24.80;98.50;;;;;;5048281;28;20434;-88
2023/07/31 10:12:52;;;;;;;7.70;2.53;;;25.90;97.00;;;;;;5029212;28;20434;-88
2023/07/31 10:15:19;;;;;;;5.53;2.63;;;26.80;96.10;;;;;;5024963;28;20463;-88
2023/07/31 10:17:47;;;;;;;4.67;2.67;;;26.10;93.20;;;;;;5027847;28;20470;-88
2023/07/31 10:20:13;;;;;;;4.20;2.27;;;;;;;;;;5028653;28;20565;-88
2023/07/31 10:22:39;;;;;;;4.07;3.10;;;;;;;;;;5029708;28;20534;-88
2023/07/31 10:25:08;;;;;;;5.10;2.23;;;24.80;94.00;;;;;;5026788;28;20534;-89
2023/07/31 10:27:35;;;;;;;9.73;3.37;;;24.50;95.00;;;;;;5038456;28;20436;-88
2023/07/31 10:30:04;;;;;;;6.60;2.93;;;24.50;96.10;;;;;;5044731;28;20530;-88
2023/07/31 10:32:30;;;;;;;5.40;2.00;;;24.70;95.80;;;;;;5028895;28;20515;-88
2023/07/31 10:34:57;;;;;;;5.53;3.63;;;25.00;95.30;;;;;;5031279;28;20520;-88
2023/07/31 10:37:42;;;;;;;7.03;3.27;;;25.00;95.60;;;;;;5027006;28;20436;-88
2023/07/31 10:40:13;;;;;;;6.47;3.17;;;24.90;94.80;;;;;;5025034;28;20495;-89
2023/07/31 10:42:49;;;;;;;8.03;2.77;;;24.50;95.30;;;;;;5036256;28;20457;-90
2023/07/31 10:45:31;;;;;;;9.03;2.83;;;24.80;96.50;;;;;;5024656;28;20540;-89
2023/07/31 10:48:02;;;;;;;5.67;2.90;;;24.90;97.40;;;;;;5029991;28;20561;-90
2023/07/31 10:50:28;;;;;;;9.23;3.73;;;24.60;97.10;;;;;;5032444;28;20441;-88
2023/07/31 10:52:55;;;;;;;15.40;3.43;;;24.20;96.70;;;;;;5028897;28;20433;-88
2023/07/31 10:55:26;;;;;;;6.00;2.67;;;24.40;97.80;;;;;;5034303;28;21013;-89
2023/07/31 10:57:54;;;;;;;6.63;2.57;;;24.10;97.70;;;;;;5030133;28;20428;-90
2023/07/31 11:00:23;;;;;;;10.20;3.87;;;23.30;97.00;;;;;;5034707;28;20459;-89
2023/07/31 11:03:22;;;;;;;7.50;2.80;;;23.00;97.20;;;;;;5031784;28;20433;-88
2023/07/31 11:06:15;;;;;;;7.23;3.07;;;23.90;99.90;;;;;;5035706;28;21081;-90
2023/07/31 11:08:49;;;;;;;8.73;2.33;;;23.70;98.80;;;;;;5043765;28;20543;-88
2023/07/31 11:11:17;;;;;;;7.43;3.40;;;23.60;98.70;;;;;;5051030;28;20451;-89
2023/07/31 11:13:54;;;;;;;5.47;2.67;;;23.20;98.00;;;;;;5036911;28;20425;-87
2023/07/31 11:16:22;;;;;;;6.30;2.63;;;23.80;99.90;;;;;;5032445;28;20513;-90
2023/07/31 11:18:49;;;;;;;9.03;3.40;;;24.10;98.20;;;;;;5048526;28;20506;-90
2023/07/31 11:21:17;;;;;;;5.17;2.70;;;22.90;98.70;;;;;;5032490;28;20535;-90
2023/07/31 11:23:46;;;;;;;6.13;3.43;;;23.40;99.90;;;;;;5034597;28;20457;-89
2023/07/31 11:26:12;;;;;;;5.63;3.07;;;23.60;99.50;;;;;;5031865;28;20456;-88
2023/07/31 11:28:38;;;;;;;7.87;3.93;;;;;;;;;;5029643;28;20490;-89
2023/07/31 11:31:04;;;;;;;6.33;3.27;;;23.20;99.40;;;;;;5035069;28;20177;-90
2023/07/31 11:33:30;;;;;;;6.17;3.10;;;23.30;99.80;;;;;;5047282;28;20478;-89
2023/07/31 11:35:56;;;;;;;4.97;2.97;;;23.60;99.90;;;;;;5047085;28;20451;-88
2023/07/31 11:38:29;;;;;;;10.17;3.43;;;23.90;99.40;;;;;;5034795;28;20184;-89
2023/07/31 11:40:59;;;;;;;6.47;2.73;;;24.30;98.50;;;;;;5033454;28;20332;-89
2023/07/31 11:43:26;;;;;;;6.13;3.07;;;24.60;98.40;;;;;;5051744;28;20429;-87
2023/07/31 11:45:57;;;;;;;7.30;3.30;;;24.10;98.90;;;;;;5034840;28;20455;-89
2023/07/31 11:48:33;;;;;;;7.00;3.10;;;23.50;97.90;;;;;;5042785;28;20498;-89
2023/07/31 11:51:00;;;;;;;8.20;4.47;;;23.40;99.50;;;;;;5045575;28;20533;-89
2023/07/31 11:53:29;;;;;;;5.40;2.70;;;22.90;98.80;;;;;;5030077;28;20555;-88
2023/07/31 11:56:00;;;;;;;11.03;3.23;;;23.10;99.80;;;;;;5031177;28;20848;-89
2023/07/31 11:58:27;;;;;;;9.10;3.30;;;23.10;99.50;;;;;;5034957;28;20412;-88
2023/07/31 12:00:53;;;;;;;8.40;3.10;;;23.30;99.50;;;;;;5040613;28;20441;-88
2023/07/31 12:03:19;;;;;;;7.70;3.30;;;22.90;99.90;;;;;;5049283;28;20442;-88
2023/07/31 12:05:47;;;;;;;3.63;2.60;;;22.60;99.90;;;;;;5027541;28;20480;-89
2023/07/31 12:08:13;;;;;;;7.63;3.00;;;22.60;98.80;;;;;;5033725;28;20463;-89
2023/07/31 12:10:40;;;;;;;8.67;2.93;;;22.60;99.90;;;;;;5050480;28;20437;-90
2023/07/31 12:13:23;;;;;;;13.23;3.23;;;22.70;99.90;;;;;;5034978;28;20268;-89
2023/07/31 12:15:53;;;;;;;4.93;2.60;;;22.80;99.90;;;;;;5047738;28;20850;-89
2023/07/31 12:18:20;;;;;;;5.63;2.77;;;22.90;99.90;;;;;;5034106;28;20474;-89
2023/07/31 12:20:46;;;;;;;6.77;3.50;;;;;;;;;;5032857;28;21235;-89
2023/07/31 12:23:28;;;;;;;8.50;3.63;;;22.80;99.90;;;;;;5045559;28;20439;-89
2023/07/31 12:26:07;;;;;;;5.70;2.40;;;23.70;99.90;;;;;;5026395;28;20843;-89
2023/07/31 12:28:44;;;;;;;9.77;3.80;;;22.70;99.80;;;;;;5029618;28;20506;-90
2023/07/31 12:31:12;;;;;;;9.27;2.27;;;22.90;99.90;;;;;;5031009;28;20444;-89
2023/07/31 12:33:39;;;;;;;9.80;3.20;;;23.00;99.90;;;;;;5042552;28;20517;-87
2023/07/31 12:36:32;;;;;;;9.30;2.90;;;23.40;99.20;;;;;;5028757;28;20471;-89
2023/07/31 12:38:58;;;;;;;5.13;2.83;;;23.10;99.90;;;;;;5040292;28;21227;-89
2023/07/31 12:41:26;;;;;;;11.30;3.00;;;23.60;99.40;;;;;;5053205;28;20451;-88
2023/07/31 12:43:53;;;;;;;9.00;3.30;;;24.00;99.90;;;;;;5034913;28;20406;-88
2023/07/31 12:46:18;;;;;;;5.60;2.63;;;23.50;98.70;;;;;;5018895;28;20493;-89
2023/07/31 12:48:44;;;;;;;6.50;2.97;;;23.10;99.60;;;;;;5018957;28;20440;-89
2023/07/31 12:51:09;;;;;;;9.40;2.87;;;23.90;99.90;;;;;;5036934;28;20181;-89
2023/07/31 12:53:35;;;;;;;4.80;2.77;;;;;;;;;;5019033;28;20177;-89
2023/07/31 12:56:02;;;;;;;5.57;2.83;;;;;;;;;;5035114;28;20211;-89
2023/07/31 12:58:28;;;;;;;10.40;3.20;;;;;;;;;;5038262;28;20445;-89
2023/07/31 13:00:54;;;;;;;6.53;2.77;;;;;;;;;;5037597;28;20431;-89
2023/07/31 13:03:19;;;;;;;5.13;2.67;;;;;;;;;;5037595;28;20446;-89
2023/07/31 13:05:45;;;;;;;5.40;2.47;;;;;;;;;;5038215;28;20439;-89